createdAt,value
2018-09-11T00:02:26.484Z,11.80
2018-09-11T00:04:55.511Z,11.80
2018-09-11T00:07:24.101Z,11.90
2018-09-11T00:09:53.130Z,11.80
2018-09-11T00:12:21.737Z,11.70
2018-09-11T00:14:50.502Z,11.60
2018-09-11T00:17:19.260Z,11.60
2018-09-11T00:19:47.902Z,11.60
2018-09-11T00:22:16.582Z,11.70
2018-09-11T00:24:45.184Z,11.60
2018-09-11T00:27:13.811Z,11.60
2018-09-11T00:29:42.837Z,11.60
2018-09-11T00:32:11.494Z,11.50
2018-09-11T00:34:40.281Z,11.50
2018-09-11T00:37:09.343Z,11.50
2018-09-11T00:39:38.200Z,11.50
2018-09-11T00:42:06.723Z,11.60
2018-09-11T00:44:35.360Z,11.60
2018-09-11T00:47:04.028Z,11.50
2018-09-11T00:49:32.829Z,11.60
2018-09-11T00:52:01.642Z,11.50
2018-09-11T00:54:30.201Z,11.50
2018-09-11T00:56:58.981Z,11.50
2018-09-11T00:59:27.658Z,11.50
2018-09-11T01:01:56.214Z,11.50
2018-09-11T01:04:24.734Z,11.40
2018-09-11T01:06:53.390Z,11.30
2018-09-11T01:09:21.953Z,11.20
2018-09-11T01:11:50.507Z,11.20
2018-09-11T01:14:19.253Z,11.30
2018-09-11T01:16:47.782Z,11.30
2018-09-11T01:19:16.348Z,11.30
2018-09-11T01:21:44.923Z,11.30
2018-09-11T01:24:13.501Z,11.30
2018-09-11T01:26:42.326Z,11.20
2018-09-11T01:29:10.874Z,11.10
2018-09-11T01:31:39.604Z,11.00
2018-09-11T01:34:08.561Z,11.00
2018-09-11T01:36:37.668Z,10.90
2018-09-11T01:39:09.021Z,10.90
2018-09-11T01:41:37.608Z,11.00
2018-09-11T01:44:06.871Z,11.00
2018-09-11T01:46:35.830Z,11.00
2018-09-11T01:49:04.844Z,11.00
2018-09-11T01:51:33.838Z,10.90
2018-09-11T01:54:02.374Z,10.80
2018-09-11T01:56:31.020Z,10.70
2018-09-11T01:58:59.556Z,10.70
2018-09-11T02:01:28.056Z,10.80
2018-09-11T02:03:56.580Z,10.90
2018-09-11T02:06:25.364Z,10.90
2018-09-11T02:08:54.302Z,10.90
2018-09-11T02:11:23.428Z,10.90
2018-09-11T02:13:52.813Z,10.80
2018-09-11T02:16:21.437Z,10.70
2018-09-11T02:18:50.110Z,10.70
2018-09-11T02:21:18.638Z,10.70
2018-09-11T02:23:47.202Z,10.70
2018-09-11T02:26:15.748Z,10.70
2018-09-11T02:28:44.289Z,10.70
2018-09-11T02:31:12.880Z,10.70
2018-09-11T02:33:41.462Z,10.70
2018-09-11T02:36:09.993Z,10.70
2018-09-11T02:38:38.603Z,10.70
2018-09-11T02:41:07.181Z,10.70
2018-09-11T02:43:36.049Z,10.70
2018-09-11T02:46:04.627Z,10.80
2018-09-11T02:48:33.482Z,10.80
2018-09-11T02:51:02.141Z,10.90
2018-09-11T02:53:30.771Z,10.80
2018-09-11T02:55:59.490Z,10.90
2018-09-11T02:58:28.247Z,10.90
2018-09-11T03:00:56.981Z,10.80
2018-09-11T03:03:25.621Z,10.80
2018-09-11T03:05:54.159Z,10.80
2018-09-11T03:08:22.864Z,10.80
2018-09-11T03:10:51.422Z,10.70
2018-09-11T03:13:20.003Z,10.70
2018-09-11T03:15:48.575Z,10.70
2018-09-11T03:18:17.297Z,10.70
2018-09-11T03:20:46.089Z,10.70
2018-09-11T03:23:14.895Z,10.70
2018-09-11T03:25:43.580Z,10.70
2018-09-11T03:28:12.599Z,10.70
2018-09-11T03:30:41.278Z,10.70
2018-09-11T03:33:10.196Z,10.70
2018-09-11T03:35:38.748Z,10.60
2018-09-11T03:38:07.599Z,10.60
2018-09-11T03:40:36.174Z,10.60
2018-09-11T03:43:05.039Z,10.60
2018-09-11T03:45:33.627Z,10.60
2018-09-11T03:48:02.183Z,10.60
2018-09-11T03:50:30.733Z,10.60
2018-09-11T03:52:59.406Z,10.50
2018-09-11T03:55:28.083Z,10.50
2018-09-11T03:57:56.702Z,10.50
2018-09-11T04:00:25.408Z,10.50
2018-09-11T04:02:53.960Z,10.40
2018-09-11T04:05:22.558Z,10.40
2018-09-11T04:07:51.130Z,10.40
2018-09-11T04:10:19.711Z,10.40
2018-09-11T04:12:48.491Z,10.40
2018-09-11T04:15:17.165Z,10.40
2018-09-11T04:17:46.045Z,10.40
2018-09-11T04:20:14.640Z,10.40
2018-09-11T04:22:43.551Z,10.30
2018-09-11T04:25:12.237Z,10.30
2018-09-11T04:27:41.302Z,10.20
2018-09-11T04:30:09.942Z,10.30
2018-09-11T04:32:38.502Z,10.30
2018-09-11T04:35:07.226Z,10.40
2018-09-11T04:37:35.967Z,10.30
2018-09-11T04:40:04.725Z,10.30
2018-09-11T04:42:33.440Z,10.30
2018-09-11T04:45:01.972Z,10.30
2018-09-11T04:47:30.869Z,10.30
2018-09-11T04:49:59.432Z,10.30
2018-09-11T04:52:28.141Z,10.50
2018-09-11T04:54:56.889Z,10.50
2018-09-11T04:57:25.567Z,10.50
2018-09-11T04:59:54.445Z,10.70
2018-09-11T05:02:23.187Z,11.20
2018-09-11T05:04:52.935Z,11.80
2018-09-11T05:07:21.560Z,12.40
2018-09-11T05:09:50.158Z,12.70
2018-09-11T05:12:18.882Z,13.10
2018-09-11T05:14:47.499Z,13.40
2018-09-11T05:17:16.389Z,13.60
2018-09-11T05:19:45.524Z,13.80
2018-09-11T05:22:14.366Z,14.00
2018-09-11T05:24:43.326Z,14.10
2018-09-11T05:27:12.043Z,14.20
2018-09-11T05:29:40.923Z,14.30
2018-09-11T05:32:09.621Z,14.30
2018-09-11T05:34:38.502Z,14.40
2018-09-11T05:37:07.093Z,14.40
2018-09-11T05:39:35.609Z,14.40
2018-09-11T05:42:04.414Z,14.50
2018-09-11T05:44:33.093Z,14.60
2018-09-11T05:47:02.037Z,14.70
2018-09-11T05:49:30.895Z,14.80
2018-09-11T05:51:59.662Z,14.80
2018-09-11T05:54:28.338Z,14.80
2018-09-11T05:56:57.138Z,14.70
2018-09-11T05:59:25.799Z,14.70
2018-09-11T06:01:54.454Z,14.70
2018-09-11T06:04:23.215Z,14.70
2018-09-11T06:06:51.823Z,14.70
2018-09-11T06:09:20.417Z,14.70
2018-09-11T06:11:49.136Z,14.70
2018-09-11T06:14:17.810Z,14.70
2018-09-11T06:16:46.616Z,14.70
2018-09-11T06:19:15.399Z,14.80
2018-09-11T06:21:43.975Z,14.80
2018-09-11T06:24:12.538Z,14.80
2018-09-11T06:26:41.089Z,14.90
2018-09-11T06:29:10.174Z,15.10
2018-09-11T06:31:38.729Z,15.10
2018-09-11T06:34:07.472Z,15.10
2018-09-11T06:36:36.339Z,15.10
2018-09-11T06:39:07.336Z,15.20
2018-09-11T06:41:35.966Z,15.20
2018-09-11T06:44:05.026Z,15.20
2018-09-11T06:46:34.141Z,15.20
2018-09-11T06:49:03.577Z,15.20
2018-09-11T06:51:32.531Z,15.20
2018-09-11T06:54:01.654Z,15.30
2018-09-11T06:56:30.309Z,15.20
2018-09-11T06:58:59.395Z,15.20
2018-09-11T07:01:28.178Z,15.30
2018-09-11T07:03:56.738Z,15.30
2018-09-11T07:06:25.310Z,15.40
2018-09-11T07:08:54.247Z,15.40
2018-09-11T07:11:23.589Z,15.50
2018-09-11T07:13:52.284Z,15.50
2018-09-11T07:16:20.994Z,15.70
2018-09-11T07:18:49.756Z,15.70
2018-09-11T07:21:18.516Z,15.70
2018-09-11T07:23:47.806Z,15.80
2018-09-11T07:26:16.706Z,15.80
2018-09-11T07:28:45.534Z,15.90
2018-09-11T07:31:14.083Z,16.00
2018-09-11T07:33:43.311Z,15.90
2018-09-11T07:36:11.947Z,15.90
2018-09-11T07:38:41.269Z,15.80
2018-09-11T07:41:10.575Z,15.90
2018-09-11T07:43:39.339Z,16.00
2018-09-11T07:46:07.942Z,16.10
2018-09-11T07:48:36.902Z,16.20
2018-09-11T07:51:05.583Z,16.30
2018-09-11T07:53:34.376Z,16.30
2018-09-11T07:56:03.070Z,16.40
2018-09-11T07:58:31.700Z,16.40
2018-09-11T08:01:00.663Z,16.50
2018-09-11T08:03:29.301Z,16.60
2018-09-11T08:05:58.241Z,16.70
2018-09-11T08:08:26.859Z,16.80
2018-09-11T08:10:55.687Z,16.90
2018-09-11T08:13:24.250Z,17.00
2018-09-11T08:15:53.101Z,17.20
2018-09-11T08:18:21.733Z,17.30
2018-09-11T08:20:50.308Z,17.40
2018-09-11T08:23:18.855Z,17.50
2018-09-11T08:25:47.456Z,17.60
2018-09-11T08:28:16.024Z,17.60
2018-09-11T08:30:44.618Z,17.60
2018-09-11T08:33:13.166Z,17.70
2018-09-11T08:35:41.770Z,17.90
2018-09-11T08:38:10.537Z,18.10
2018-09-11T08:40:39.313Z,18.20
2018-09-11T08:43:07.999Z,18.20
2018-09-11T08:45:36.614Z,18.40
2018-09-11T08:48:05.235Z,18.50
2018-09-11T08:50:34.061Z,18.70
2018-09-11T08:53:02.748Z,18.60
2018-09-11T08:55:31.344Z,18.70
2018-09-11T08:58:00.472Z,18.80
2018-09-11T09:00:29.346Z,18.90
2018-09-11T09:02:57.902Z,19.10
2018-09-11T09:05:26.555Z,19.20
2018-09-11T09:07:55.249Z,19.30
2018-09-11T09:10:24.582Z,19.30
2018-09-11T09:12:53.445Z,19.60
2018-09-11T09:15:22.021Z,19.60
2018-09-11T09:17:50.995Z,19.70
2018-09-11T09:20:20.055Z,19.90
2018-09-11T09:22:48.971Z,19.90
2018-09-11T09:25:18.117Z,19.90
2018-09-11T09:27:46.933Z,20.10
2018-09-11T09:30:15.952Z,20.40
2018-09-11T09:32:44.654Z,20.40
2018-09-11T09:35:13.313Z,20.40
2018-09-11T09:37:42.123Z,20.50
2018-09-11T09:40:11.140Z,20.80
2018-09-11T09:42:39.834Z,20.80
2018-09-11T09:45:09.472Z,21.20
2018-09-11T09:47:38.377Z,21.30
2018-09-11T09:50:06.976Z,21.80
2018-09-11T09:52:35.574Z,22.50
2018-09-11T09:55:04.506Z,23.20
2018-09-11T09:57:33.922Z,23.70
2018-09-11T10:00:02.873Z,24.20
2018-09-11T10:02:31.599Z,24.10
2018-09-11T10:05:00.366Z,23.80
2018-09-11T10:07:29.041Z,23.90
2018-09-11T10:09:57.889Z,23.40
2018-09-11T10:12:26.664Z,23.50
2018-09-11T10:14:55.547Z,24.00
2018-09-11T10:17:24.273Z,23.90
2018-09-11T10:19:53.278Z,24.00
2018-09-11T10:22:21.822Z,24.50
2018-09-11T10:24:50.464Z,25.00
2018-09-11T10:27:19.135Z,25.10
2018-09-11T10:29:47.830Z,24.90
2018-09-11T10:32:16.623Z,25.00
2018-09-11T10:34:45.188Z,25.30
2018-09-11T10:37:13.771Z,25.10
2018-09-11T10:39:43.004Z,25.10
2018-09-11T10:42:11.948Z,25.50
2018-09-11T10:44:40.678Z,25.90
2018-09-11T10:47:09.603Z,26.10
2018-09-11T10:49:38.349Z,25.90
2018-09-11T10:52:07.565Z,26.50
2018-09-11T10:54:36.386Z,26.20
2018-09-11T10:57:05.485Z,26.10
2018-09-11T10:59:34.362Z,26.60
2018-09-11T11:02:03.435Z,27.10
2018-09-11T11:04:32.346Z,27.20
2018-09-11T11:07:01.534Z,27.20
2018-09-11T11:09:30.422Z,28.00
2018-09-11T11:11:59.746Z,28.30
2018-09-11T11:14:28.612Z,28.60
2018-09-11T11:16:57.604Z,29.50
2018-09-11T11:19:26.362Z,29.60
2018-09-11T11:21:55.099Z,30.00
2018-09-11T11:24:24.004Z,29.50
2018-09-11T11:26:52.787Z,28.40
2018-09-11T11:29:21.862Z,28.60
2018-09-11T11:31:50.614Z,29.40
2018-09-11T11:34:19.274Z,30.20
2018-09-11T11:36:48.083Z,30.10
2018-09-11T11:39:16.810Z,30.20
2018-09-11T11:41:45.839Z,30.60
2018-09-11T11:44:14.833Z,30.50
2018-09-11T11:46:43.744Z,30.80
2018-09-11T11:49:12.475Z,30.80
2018-09-11T11:51:41.090Z,30.70
2018-09-11T11:54:09.829Z,30.50
2018-09-11T11:56:38.635Z,30.70
2018-09-11T11:59:07.497Z,31.40
2018-09-11T12:01:36.107Z,31.00
2018-09-11T12:04:04.756Z,31.00
2018-09-11T12:06:33.629Z,31.20
2018-09-11T12:09:02.436Z,31.10
2018-09-11T12:11:31.349Z,31.00
2018-09-11T12:14:00.274Z,30.80
2018-09-11T12:16:28.853Z,31.00
2018-09-11T12:18:57.708Z,31.40
2018-09-11T12:21:26.505Z,31.40
2018-09-11T12:23:55.487Z,31.00
2018-09-11T12:26:24.157Z,31.50
2018-09-11T12:28:52.943Z,31.30
2018-09-11T12:31:21.753Z,30.90
2018-09-11T12:33:50.436Z,30.80
2018-09-11T12:36:19.690Z,30.70
2018-09-11T12:38:48.900Z,31.30
2018-09-11T12:41:17.634Z,31.50
2018-09-11T12:43:47.003Z,31.20
2018-09-11T12:46:16.017Z,31.40
2018-09-11T12:48:44.506Z,31.80
2018-09-11T12:51:13.166Z,32.60
2018-09-11T12:53:42.255Z,32.40
2018-09-11T12:56:11.619Z,32.40
2018-09-11T12:58:40.651Z,32.70
2018-09-11T13:01:09.505Z,31.80
2018-09-11T13:03:38.586Z,31.70
2018-09-11T13:06:07.411Z,31.40
2018-09-11T13:08:36.227Z,31.80
2018-09-11T13:11:05.417Z,32.60
2018-09-11T13:13:34.223Z,32.90
2018-09-11T13:16:03.058Z,32.90
2018-09-11T13:18:31.940Z,33.10
2018-09-11T13:21:00.616Z,33.10
2018-09-11T13:23:29.561Z,32.30
2018-09-11T13:25:58.573Z,32.70
2018-09-11T13:28:27.459Z,32.70
2018-09-11T13:30:56.246Z,32.90
2018-09-11T13:33:25.226Z,33.60
2018-09-11T13:35:54.004Z,34.20
2018-09-11T13:38:22.861Z,34.10
2018-09-11T13:40:51.721Z,33.70
2018-09-11T13:43:20.730Z,33.10
2018-09-11T13:45:49.705Z,33.60
2018-09-11T13:48:18.525Z,32.90
2018-09-11T13:50:47.229Z,33.60
2018-09-11T13:53:15.858Z,34.30
2018-09-11T13:55:44.949Z,35.10
2018-09-11T13:58:13.846Z,34.60
2018-09-11T14:00:42.499Z,34.10
2018-09-11T14:03:11.116Z,33.90
2018-09-11T14:05:39.925Z,34.80
2018-09-11T14:08:09.750Z,34.60
2018-09-11T14:10:38.584Z,34.50
2018-09-11T14:13:07.642Z,34.30
2018-09-11T14:15:36.235Z,35.50
2018-09-11T14:18:04.986Z,34.50
2018-09-11T14:20:33.600Z,34.10
2018-09-11T14:23:02.463Z,34.20
2018-09-11T14:25:31.042Z,35.20
2018-09-11T14:27:59.596Z,35.20
2018-09-11T14:30:28.414Z,35.50
2018-09-11T14:32:57.426Z,35.80
2018-09-11T14:35:26.065Z,35.60
2018-09-11T14:37:54.646Z,34.70
2018-09-11T14:40:23.434Z,34.70
2018-09-11T14:42:52.545Z,34.50
2018-09-11T14:45:21.599Z,33.70
2018-09-11T14:47:50.557Z,33.30
2018-09-11T14:50:19.308Z,34.40
2018-09-11T14:52:47.871Z,34.60
2018-09-11T14:55:16.633Z,35.00
2018-09-11T14:57:45.344Z,34.60
2018-09-11T15:00:13.961Z,34.60
2018-09-11T15:02:42.592Z,34.90
2018-09-11T15:05:11.588Z,35.20
2018-09-11T15:07:40.139Z,35.50
2018-09-11T15:10:09.037Z,35.60
2018-09-11T15:12:37.617Z,35.10
2018-09-11T15:15:06.755Z,35.60
2018-09-11T15:17:35.615Z,34.80
2018-09-11T15:20:04.176Z,34.30
2018-09-11T15:22:32.833Z,34.80
2018-09-11T15:25:01.434Z,34.40
2018-09-11T15:27:30.315Z,34.70
2018-09-11T15:29:59.054Z,34.60
2018-09-11T15:32:27.544Z,34.00
2018-09-11T15:34:56.214Z,33.60
2018-09-11T15:37:25.074Z,34.00
2018-09-11T15:39:53.930Z,33.70
2018-09-11T15:42:22.886Z,33.60
2018-09-11T15:44:51.453Z,33.70
2018-09-11T15:47:20.063Z,33.80
2018-09-11T15:49:49.234Z,34.20
2018-09-11T15:52:18.122Z,34.50
2018-09-11T15:54:47.385Z,34.20
2018-09-11T15:57:15.932Z,33.80
2018-09-11T15:59:44.598Z,33.40
2018-09-11T16:02:13.470Z,33.60
2018-09-11T16:04:42.393Z,33.70
2018-09-11T16:07:11.077Z,33.70
2018-09-11T16:09:39.704Z,32.90
2018-09-11T16:12:08.250Z,31.50
2018-09-11T16:14:37.018Z,30.50
2018-09-11T16:17:05.827Z,29.70
2018-09-11T16:19:34.552Z,28.70
2018-09-11T16:22:03.609Z,28.30
2018-09-11T16:24:32.694Z,28.10
2018-09-11T16:27:01.914Z,27.80
2018-09-11T16:29:30.676Z,27.70
2018-09-11T16:31:59.438Z,27.50
2018-09-11T16:34:28.254Z,27.10
2018-09-11T16:36:57.252Z,26.70
2018-09-11T16:39:25.875Z,26.50
2018-09-11T16:41:54.660Z,26.50
2018-09-11T16:44:23.380Z,26.30
2018-09-11T16:46:52.238Z,26.10
2018-09-11T16:49:21.291Z,26.00
2018-09-11T16:51:50.095Z,25.90
2018-09-11T16:54:18.734Z,25.80
2018-09-11T16:56:47.570Z,25.70
2018-09-11T16:59:16.400Z,25.50
2018-09-11T17:01:45.430Z,25.30
2018-09-11T17:04:14.266Z,25.20
2018-09-11T17:06:42.971Z,24.90
2018-09-11T17:09:11.647Z,24.80
2018-09-11T17:11:40.736Z,24.60
2018-09-11T17:14:09.545Z,24.60
2018-09-11T17:16:38.264Z,24.50
2018-09-11T17:19:07.060Z,24.40
2018-09-11T17:21:35.766Z,24.30
2018-09-11T17:24:04.928Z,24.20
2018-09-11T17:26:33.623Z,24.00
2018-09-11T17:29:02.499Z,23.90
2018-09-11T17:31:32.165Z,23.60
2018-09-11T17:34:00.835Z,23.50
2018-09-11T17:36:29.600Z,23.20
2018-09-11T17:38:58.486Z,23.00
2018-09-11T17:41:27.308Z,22.90
2018-09-11T17:43:56.360Z,22.70
2018-09-11T17:46:25.312Z,22.50
2018-09-11T17:48:54.725Z,22.30
2018-09-11T17:51:23.829Z,22.10
2018-09-11T17:53:52.683Z,21.90
2018-09-11T17:56:21.506Z,21.70
2018-09-11T17:58:50.899Z,21.40
2018-09-11T18:01:19.715Z,21.30
2018-09-11T18:03:48.468Z,21.10
2018-09-11T18:06:17.392Z,21.00
2018-09-11T18:08:46.490Z,20.70
2018-09-11T18:11:15.830Z,20.60
2018-09-11T18:13:45.158Z,20.40
2018-09-11T18:16:13.883Z,20.20
2018-09-11T18:18:42.947Z,20.00
2018-09-11T18:21:11.941Z,19.80
2018-09-11T18:23:41.010Z,19.70
2018-09-11T18:26:10.199Z,19.60
2018-09-11T18:28:39.287Z,19.50
2018-09-11T18:31:08.171Z,19.40
2018-09-11T18:33:37.352Z,19.30
2018-09-11T18:36:06.344Z,19.20
2018-09-11T18:38:35.226Z,19.10
2018-09-11T18:41:04.404Z,18.90
2018-09-11T18:43:33.792Z,18.80
2018-09-11T18:46:02.630Z,18.70
2018-09-11T18:48:31.947Z,18.60
2018-09-11T18:51:00.825Z,18.50
2018-09-11T18:53:29.800Z,18.50
2018-09-11T18:55:58.907Z,18.40
2018-09-11T18:58:27.733Z,18.30
2018-09-11T19:00:57.905Z,18.20
2018-09-11T19:03:27.335Z,18.20
2018-09-11T19:05:56.571Z,18.10
2018-09-11T19:08:25.823Z,18.00
2018-09-11T19:10:55.098Z,17.80
2018-09-11T19:13:24.222Z,17.70
2018-09-11T19:15:53.495Z,17.60
2018-09-11T19:18:22.766Z,17.50
2018-09-11T19:20:52.048Z,17.50
2018-09-11T19:23:21.211Z,17.40
2018-09-11T19:25:50.293Z,17.40
2018-09-11T19:28:19.173Z,17.40
2018-09-11T19:30:47.994Z,17.30
2018-09-11T19:33:17.120Z,17.30
2018-09-11T19:35:45.878Z,17.30
2018-09-11T19:38:14.533Z,17.20
2018-09-11T19:40:43.787Z,17.10
2018-09-11T19:43:12.868Z,17.10
2018-09-11T19:45:42.036Z,16.90
2018-09-11T19:48:10.928Z,16.80
2018-09-11T19:50:39.765Z,16.70
2018-09-11T19:53:08.872Z,16.60
2018-09-11T19:55:37.984Z,16.60
2018-09-11T19:58:07.006Z,16.50
2018-09-11T20:00:35.876Z,16.40
2018-09-11T20:03:05.087Z,16.40
2018-09-11T20:05:34.114Z,16.30
2018-09-11T20:08:03.213Z,16.20
2018-09-11T20:10:31.907Z,16.20
2018-09-11T20:13:00.788Z,16.00
2018-09-11T20:15:29.624Z,16.00
2018-09-11T20:17:58.546Z,16.00
2018-09-11T20:20:27.415Z,16.00
2018-09-11T20:22:56.191Z,16.00
2018-09-11T20:25:24.854Z,16.10
2018-09-11T20:27:53.832Z,15.90
2018-09-11T20:30:22.378Z,15.90
2018-09-11T20:32:51.039Z,15.80
2018-09-11T20:35:19.946Z,15.70
2018-09-11T20:37:49.006Z,15.60
2018-09-11T20:40:17.769Z,15.60
2018-09-11T20:42:46.345Z,15.40
2018-09-11T20:45:15.342Z,15.40
2018-09-11T20:47:44.152Z,15.40
2018-09-11T20:50:13.162Z,15.30
2018-09-11T20:52:41.859Z,15.40
2018-09-11T20:55:10.659Z,15.30
2018-09-11T20:57:39.439Z,15.10
2018-09-11T21:00:08.568Z,15.20
2018-09-11T21:02:37.581Z,15.10
2018-09-11T21:05:06.175Z,15.10
2018-09-11T21:07:35.088Z,14.90
2018-09-11T21:10:03.712Z,14.90
2018-09-11T21:12:32.528Z,14.90
2018-09-11T21:15:01.372Z,14.90
2018-09-11T21:17:30.074Z,14.90
2018-09-11T21:19:58.877Z,14.90
2018-09-11T21:22:27.651Z,14.70
2018-09-11T21:24:56.502Z,14.70
2018-09-11T21:27:25.299Z,14.70
2018-09-11T21:29:53.818Z,14.70
2018-09-11T21:32:22.755Z,14.60
2018-09-11T21:34:51.300Z,14.60
2018-09-11T21:37:19.869Z,14.70
2018-09-11T21:39:48.590Z,14.60
2018-09-11T21:42:17.223Z,14.60
2018-09-11T21:44:46.115Z,14.50
2018-09-11T21:47:14.727Z,14.40
2018-09-11T21:49:43.672Z,14.30
2018-09-11T21:52:12.381Z,14.30
2018-09-11T21:54:41.170Z,14.30
2018-09-11T21:57:09.710Z,14.30
2018-09-11T21:59:38.274Z,14.30
2018-09-11T22:02:06.958Z,14.40
2018-09-11T22:04:35.557Z,14.20
2018-09-11T22:07:04.574Z,14.10
2018-09-11T22:09:33.336Z,14.00
2018-09-11T22:12:02.032Z,14.00
2018-09-11T22:14:30.643Z,14.00
2018-09-11T22:16:59.372Z,13.90
2018-09-11T22:19:27.940Z,13.80
2018-09-11T22:21:57.056Z,13.80
2018-09-11T22:24:25.622Z,13.80
2018-09-11T22:26:54.163Z,13.90
2018-09-11T22:29:22.719Z,13.80
2018-09-11T22:31:51.299Z,13.90
2018-09-11T22:34:20.206Z,13.90
2018-09-11T22:36:48.762Z,14.70
2018-09-11T22:39:17.467Z,13.80
2018-09-11T22:41:46.019Z,13.70
2018-09-11T22:58:46.427Z,13.40
2018-09-11T23:01:14.996Z,13.50
2018-09-11T23:03:43.539Z,13.60
2018-09-11T23:06:12.728Z,13.60
2018-09-11T23:08:41.779Z,13.40
2018-09-11T23:11:10.575Z,13.20
2018-09-11T23:13:39.620Z,13.30
2018-09-11T23:16:11.963Z,13.30
2018-09-11T23:18:40.687Z,13.30
2018-09-11T23:21:09.412Z,13.30
2018-09-11T23:23:37.983Z,13.30
2018-09-11T23:26:06.535Z,13.20
2018-09-11T23:28:35.071Z,13.30
2018-09-11T23:31:03.750Z,13.20
2018-09-11T23:33:32.268Z,13.00
2018-09-11T23:36:02.289Z,12.90
2018-09-11T23:38:30.869Z,13.00
2018-09-11T23:40:59.609Z,13.00
2018-09-11T23:43:28.125Z,13.10
2018-09-11T23:45:57.085Z,13.10
2018-09-11T23:48:25.775Z,13.00
2018-09-11T23:50:54.458Z,12.80
2018-09-11T23:53:23.045Z,12.70
2018-09-11T23:55:51.593Z,12.80
2018-09-11T23:58:20.235Z,12.80
